createdAt,value
2022-10-06T00:02:11.546Z,10.30
2022-10-06T00:04:42.496Z,9.40
2022-10-06T00:07:14.699Z,10.20
2022-10-06T00:09:45.488Z,11.00
2022-10-06T00:12:16.746Z,10.40
2022-10-06T00:14:47.463Z,10.20
2022-10-06T00:17:17.126Z,10.80
2022-10-06T00:19:48.423Z,9.70
2022-10-06T00:22:21.250Z,10.60
2022-10-06T00:24:54.986Z,8.40
2022-10-06T00:27:51.125Z,14.10
2022-10-06T00:30:33.331Z,8.40
2022-10-06T00:33:25.498Z,10.30
2022-10-06T00:36:03.332Z,8.80
2022-10-06T00:38:36.196Z,9.00
2022-10-06T00:41:17.764Z,7.50
2022-10-06T00:44:06.301Z,7.90
2022-10-06T00:46:48.129Z,8.40
2022-10-06T00:49:26.687Z,10.90
2022-10-06T00:54:40.795Z,8.70
2022-10-06T00:57:12.508Z,8.40
2022-10-06T00:59:41.291Z,8.60
2022-10-06T01:02:20.477Z,9.70
2022-10-06T01:05:02.937Z,6.40
2022-10-06T01:07:36.147Z,7.70
2022-10-06T01:10:10.454Z,7.00
2022-10-06T01:12:44.938Z,8.00
2022-10-06T01:15:26.092Z,6.90
2022-10-06T01:18:14.374Z,7.00
2022-10-06T01:20:52.123Z,7.20
2022-10-06T01:23:46.112Z,7.00
2022-10-06T01:26:22.714Z,9.30
2022-10-06T01:28:56.517Z,8.20
2022-10-06T01:31:29.464Z,9.10
2022-10-06T01:34:04.355Z,12.10
2022-10-06T01:36:36.799Z,6.90
2022-10-06T01:39:07.843Z,7.20
2022-10-06T01:41:38.608Z,8.80
2022-10-06T01:44:09.713Z,7.50
2022-10-06T01:46:40.777Z,7.30
2022-10-06T01:49:15.605Z,6.30
2022-10-06T01:51:50.545Z,7.80
2022-10-06T01:54:21.582Z,7.40
2022-10-06T01:56:52.519Z,9.00
2022-10-06T01:59:24.820Z,9.20
2022-10-06T02:01:56.295Z,9.10
2022-10-06T02:04:27.512Z,7.50
2022-10-06T02:06:59.108Z,9.90
2022-10-06T02:09:30.798Z,9.60
2022-10-06T02:12:02.542Z,8.60
2022-10-06T02:14:34.427Z,9.30
2022-10-06T02:17:06.752Z,8.10
2022-10-06T02:19:37.592Z,8.10
2022-10-06T02:22:08.644Z,9.30
2022-10-06T02:24:40.059Z,7.90
2022-10-06T02:27:10.876Z,8.80
2022-10-06T02:29:42.686Z,10.00
2022-10-06T02:32:13.507Z,9.70
2022-10-06T02:34:44.897Z,8.50
2022-10-06T02:37:17.606Z,9.60
2022-10-06T02:39:48.257Z,7.60
2022-10-06T02:42:19.980Z,8.50
2022-10-06T02:44:52.445Z,6.90
2022-10-06T02:47:23.629Z,7.00
2022-10-06T02:49:54.730Z,8.10
2022-10-06T02:52:33.703Z,7.20
2022-10-06T02:55:06.222Z,8.90
2022-10-06T02:57:38.471Z,7.10
2022-10-06T03:00:08.287Z,7.60
2022-10-06T03:02:37.653Z,8.20
2022-10-06T03:05:08.805Z,7.90
2022-10-06T03:07:37.701Z,7.30
2022-10-06T03:10:09.419Z,5.90
2022-10-06T03:12:41.435Z,7.00
2022-10-06T03:15:12.598Z,8.30
2022-10-06T03:17:49.109Z,5.80
2022-10-06T03:20:20.544Z,6.70
2022-10-06T03:22:54.479Z,8.80
2022-10-06T03:25:26.194Z,5.60
2022-10-06T03:27:59.625Z,6.90
2022-10-06T03:30:30.512Z,7.50
2022-10-06T03:33:01.857Z,10.00
2022-10-06T03:35:33.434Z,7.50
2022-10-06T03:38:04.815Z,6.90
2022-10-06T03:40:35.786Z,6.80
2022-10-06T03:43:09.805Z,8.10
2022-10-06T03:45:41.207Z,8.80
2022-10-06T03:48:12.702Z,8.60
2022-10-06T03:50:46.097Z,7.40
2022-10-06T03:53:17.664Z,8.40
2022-10-06T03:55:48.577Z,8.30
2022-10-06T03:58:19.858Z,7.40
2022-10-06T04:01:02.246Z,7.30
2022-10-06T04:03:34.908Z,11.30
2022-10-06T04:06:10.027Z,8.10
2022-10-06T04:08:41.891Z,9.70
2022-10-06T04:11:21.721Z,8.80
2022-10-06T04:14:01.859Z,7.90
2022-10-06T04:16:36.870Z,6.80
2022-10-06T04:19:11.816Z,7.10
2022-10-06T04:21:52.990Z,4.80
2022-10-06T04:24:27.507Z,6.10
2022-10-06T04:27:19.309Z,7.40
2022-10-06T04:30:10.764Z,7.30
2022-10-06T04:32:41.872Z,6.30
2022-10-06T04:35:13.661Z,8.90
2022-10-06T04:37:46.687Z,6.80
2022-10-06T04:40:18.458Z,8.80
2022-10-06T04:42:50.087Z,7.60
2022-10-06T04:45:21.138Z,6.10
2022-10-06T04:47:52.168Z,7.20
2022-10-06T04:50:24.142Z,7.60
2022-10-06T04:53:14.404Z,9.50
2022-10-06T04:55:46.290Z,10.50
2022-10-06T04:58:17.238Z,8.90
2022-10-06T05:00:49.205Z,7.10
2022-10-06T05:03:21.097Z,8.30
2022-10-06T05:05:52.217Z,6.40
2022-10-06T05:08:24.260Z,6.50
2022-10-06T05:11:15.110Z,5.20
2022-10-06T05:13:55.119Z,5.00
2022-10-06T05:16:47.957Z,6.40
2022-10-06T05:19:19.437Z,6.90
2022-10-06T05:21:51.515Z,5.80
2022-10-06T05:24:26.257Z,6.90
2022-10-06T05:27:02.248Z,6.90
2022-10-06T05:29:35.125Z,7.80
2022-10-06T05:32:07.708Z,7.90
2022-10-06T05:34:59.229Z,4.30
2022-10-06T05:37:30.537Z,6.30
2022-10-06T05:40:01.562Z,6.50
2022-10-06T05:42:33.281Z,5.20
2022-10-06T05:45:04.732Z,7.60
2022-10-06T05:47:35.765Z,4.40
2022-10-06T05:50:27.442Z,6.90
2022-10-06T05:52:59.106Z,12.50
2022-10-06T05:55:32.067Z,6.30
2022-10-06T05:58:03.247Z,5.10
2022-10-06T06:00:35.183Z,3.30
2022-10-06T06:03:09.753Z,3.70
2022-10-06T06:05:44.545Z,3.70
2022-10-06T06:08:36.887Z,6.90
2022-10-06T06:11:08.726Z,3.40
2022-10-06T06:14:00.617Z,4.20
2022-10-06T06:16:31.547Z,4.10
2022-10-06T06:19:03.694Z,3.60
2022-10-06T06:21:35.357Z,2.60
2022-10-06T06:24:07.637Z,3.20
2022-10-06T06:26:38.745Z,3.30
2022-10-06T06:29:11.542Z,4.40
2022-10-06T06:31:48.727Z,4.50
2022-10-06T06:34:20.397Z,3.50
2022-10-06T06:37:15.108Z,4.10
2022-10-06T06:39:49.151Z,5.30
2022-10-06T06:42:42.501Z,6.10
2022-10-06T06:45:30.994Z,9.30
2022-10-06T06:48:17.841Z,6.10
2022-10-06T06:51:00.287Z,4.30
2022-10-06T06:53:34.808Z,13.50
2022-10-06T06:56:09.614Z,22.10
2022-10-06T06:58:47.692Z,37.40
2022-10-06T07:01:23.220Z,24.80
2022-10-06T07:03:58.102Z,21.70
2022-10-06T07:06:40.202Z,18.30
2022-10-06T07:12:23.036Z,8.70
2022-10-06T07:15:16.628Z,9.10
2022-10-06T07:18:09.799Z,8.30
2022-10-06T07:21:01.003Z,5.40
2022-10-06T07:23:51.831Z,6.40
2022-10-06T07:26:32.334Z,6.30
2022-10-06T07:29:03.850Z,7.20
2022-10-06T07:31:37.926Z,8.30
2022-10-06T07:34:09.234Z,7.30
2022-10-06T07:36:40.678Z,4.40
2022-10-06T07:39:12.213Z,7.50
2022-10-06T07:41:43.269Z,5.10
2022-10-06T07:44:34.504Z,5.20
2022-10-06T07:47:06.917Z,4.80
2022-10-06T07:49:58.432Z,4.80
2022-10-06T07:52:29.677Z,4.30
2022-10-06T07:55:01.894Z,5.50
2022-10-06T07:58:17.996Z,3.30
2022-10-06T08:00:53.198Z,3.60
2022-10-06T08:03:25.531Z,2.50
2022-10-06T08:06:03.176Z,7.10
2022-10-06T08:08:38.043Z,6.30
2022-10-06T08:11:11.742Z,5.80
2022-10-06T08:13:49.026Z,3.30
2022-10-06T08:16:21.181Z,3.40
2022-10-06T08:18:56.029Z,4.10
2022-10-06T08:21:34.501Z,4.30
2022-10-06T08:24:06.099Z,8.70
2022-10-06T08:26:37.129Z,5.60
2022-10-06T08:29:08.433Z,5.10
2022-10-06T08:31:39.566Z,4.60
2022-10-06T08:34:12.928Z,4.50
2022-10-06T08:36:56.941Z,4.70
2022-10-06T08:39:35.702Z,7.00
2022-10-06T08:42:12.981Z,7.70
2022-10-06T08:44:52.429Z,4.50
2022-10-06T08:47:28.056Z,5.80
2022-10-06T08:49:59.950Z,4.70
2022-10-06T08:53:15.498Z,2.60
2022-10-06T08:56:11.261Z,1.80
2022-10-06T08:59:05.029Z,2.60
2022-10-06T09:01:47.847Z,3.80
2022-10-06T09:04:29.901Z,4.90
2022-10-06T09:07:13.426Z,2.00
2022-10-06T09:10:32.250Z,2.00
2022-10-06T09:13:10.618Z,2.60
2022-10-06T09:16:15.465Z,3.90
2022-10-06T09:19:13.940Z,3.40
2022-10-06T09:21:51.402Z,2.00
2022-10-06T09:24:33.835Z,1.90
2022-10-06T09:27:33.649Z,2.40
2022-10-06T09:30:19.861Z,1.20
2022-10-06T09:33:11.087Z,1.90
2022-10-06T09:36:09.607Z,4.30
2022-10-06T09:38:47.933Z,4.70
2022-10-06T09:41:19.535Z,1.90
2022-10-06T09:44:00.057Z,2.50
2022-10-06T09:46:29.613Z,2.60
2022-10-06T09:49:17.984Z,2.90
2022-10-06T09:52:12.233Z,2.20
2022-10-06T09:54:44.788Z,2.40
2022-10-06T09:57:24.897Z,1.90
2022-10-06T09:59:54.817Z,2.40
2022-10-06T10:02:41.262Z,2.30
2022-10-06T10:05:23.781Z,1.30
2022-10-06T10:08:27.725Z,3.90
2022-10-06T10:11:53.274Z,1.50
2022-10-06T10:14:24.553Z,1.40
2022-10-06T10:16:54.175Z,1.80
2022-10-06T10:19:43.119Z,4.80
2022-10-06T10:22:41.940Z,1.60
2022-10-06T10:25:34.837Z,1.50
2022-10-06T10:28:18.590Z,2.00
2022-10-06T10:30:58.515Z,2.40
2022-10-06T10:34:12.835Z,6.30
2022-10-06T10:37:00.117Z,2.80
2022-10-06T10:39:41.454Z,2.80
2022-10-06T10:42:21.153Z,1.70
2022-10-06T10:45:00.418Z,2.50
2022-10-06T10:47:38.236Z,1.30
2022-10-06T10:50:37.994Z,1.40
2022-10-06T10:53:57.407Z,1.40
2022-10-06T10:56:32.037Z,1.70
2022-10-06T10:59:31.983Z,2.40
2022-10-06T11:02:14.034Z,2.80
2022-10-06T11:04:49.691Z,2.80
2022-10-06T11:07:50.184Z,1.30
2022-10-06T11:10:29.805Z,2.40
2022-10-06T11:13:16.171Z,2.00
2022-10-06T11:16:18.729Z,1.20
2022-10-06T11:19:15.099Z,1.40
2022-10-06T11:22:03.563Z,1.90
2022-10-06T11:24:53.124Z,1.60
2022-10-06T11:28:02.275Z,1.40
2022-10-06T11:30:39.918Z,2.00
2022-10-06T11:33:25.887Z,6.70
2022-10-06T11:35:57.467Z,1.40
2022-10-06T11:38:43.747Z,2.20
2022-10-06T11:41:39.113Z,1.80
2022-10-06T11:44:25.233Z,1.50
2022-10-06T11:47:05.365Z,2.10
2022-10-06T11:50:00.976Z,2.80
2022-10-06T11:52:35.291Z,1.60
2022-10-06T11:55:17.207Z,4.30
2022-10-06T12:01:06.075Z,2.40
2022-10-06T12:03:46.532Z,1.10
2022-10-06T12:06:56.034Z,1.80
2022-10-06T12:09:40.207Z,1.50
2022-10-06T12:12:25.114Z,1.40
2022-10-06T12:17:06.168Z,2.70
2022-10-06T12:18:47.196Z,1.70
2022-10-06T12:21:35.124Z,3.90
2022-10-06T12:24:15.481Z,2.00
2022-10-06T12:27:20.712Z,1.20
2022-10-06T12:30:17.253Z,3.90
2022-10-06T12:33:05.923Z,4.10
2022-10-06T12:35:40.381Z,4.00
2022-10-06T12:39:07.873Z,1.90
2022-10-06T12:42:01.096Z,1.20
2022-10-06T12:45:05.823Z,1.30
2022-10-06T12:47:44.492Z,1.10
2022-10-06T12:50:28.126Z,4.20
2022-10-06T12:53:05.805Z,4.00
2022-10-06T12:56:23.629Z,2.10
2022-10-06T12:58:56.214Z,1.80
2022-10-06T13:01:38.131Z,2.20
2022-10-06T13:04:36.553Z,2.00
2022-10-06T13:07:20.514Z,2.80
2022-10-06T13:16:09.526Z,2.10
2022-10-06T13:18:56.917Z,2.40
2022-10-06T13:21:30.366Z,10.10
2022-10-06T13:24:00.163Z,1.80
2022-10-06T13:26:34.897Z,2.80
2022-10-06T13:29:22.682Z,1.10
2022-10-06T13:32:18.148Z,1.70
2022-10-06T13:34:49.597Z,1.60
2022-10-06T13:37:20.702Z,1.50
2022-10-06T13:39:52.048Z,1.50
2022-10-06T13:42:23.552Z,1.10
2022-10-06T13:45:01.606Z,2.10
2022-10-06T13:47:33.919Z,1.90
2022-10-06T13:50:20.026Z,1.50
2022-10-06T13:52:51.235Z,1.40
2022-10-06T13:55:49.028Z,1.40
2022-10-06T13:58:24.555Z,2.10
2022-10-06T14:01:01.083Z,2.50
2022-10-06T14:03:38.394Z,1.40
2022-10-06T14:06:22.460Z,3.00
2022-10-06T14:08:58.184Z,3.10
2022-10-06T14:11:53.101Z,4.70
2022-10-06T14:14:24.533Z,1.70
2022-10-06T14:17:22.114Z,2.50
2022-10-06T14:19:53.302Z,3.30
2022-10-06T14:22:37.710Z,3.00
2022-10-06T14:25:15.797Z,2.80
2022-10-06T14:27:47.183Z,2.70
2022-10-06T14:30:18.193Z,3.70
2022-10-06T14:32:49.955Z,3.40
2022-10-06T14:35:20.972Z,2.00
2022-10-06T14:37:52.048Z,4.10
2022-10-06T14:40:23.393Z,2.40
2022-10-06T14:42:53.948Z,3.90
2022-10-06T14:45:27.393Z,2.80
2022-10-06T14:47:59.637Z,2.70
2022-10-06T14:50:31.785Z,3.20
2022-10-06T14:53:05.724Z,4.20
2022-10-06T14:55:37.802Z,3.50
2022-10-06T14:58:08.787Z,2.80
2022-10-06T15:00:42.565Z,3.50
2022-10-06T15:03:16.627Z,2.10
2022-10-06T15:06:06.183Z,3.40
2022-10-06T15:08:37.059Z,4.40
2022-10-06T15:11:13.085Z,5.10
2022-10-06T15:13:47.732Z,3.60
2022-10-06T15:16:24.589Z,3.00
2022-10-06T15:18:56.005Z,3.80
2022-10-06T15:21:27.941Z,4.70
2022-10-06T15:24:01.709Z,4.40
2022-10-06T15:26:55.577Z,4.20
2022-10-06T15:29:27.241Z,5.60
2022-10-06T15:31:58.891Z,2.30
2022-10-06T15:34:37.942Z,4.60
2022-10-06T15:37:09.494Z,3.60
2022-10-06T15:39:40.697Z,4.10
2022-10-06T15:42:11.890Z,3.80
2022-10-06T15:44:42.755Z,2.70
2022-10-06T15:47:13.709Z,3.30
2022-10-06T15:49:46.992Z,4.10
2022-10-06T15:52:18.988Z,2.70
2022-10-06T15:54:50.179Z,4.60
2022-10-06T15:57:23.957Z,5.00
2022-10-06T15:59:52.961Z,5.10
2022-10-06T16:02:23.922Z,4.50
2022-10-06T16:04:55.003Z,6.10
2022-10-06T16:07:26.070Z,5.00
2022-10-06T16:09:57.256Z,4.70
2022-10-06T16:12:28.799Z,5.10
2022-10-06T16:15:00.901Z,4.50
2022-10-06T16:17:31.776Z,6.20
2022-10-06T16:20:02.565Z,7.20
2022-10-06T16:22:33.716Z,7.20
2022-10-06T16:25:05.040Z,13.40
2022-10-06T16:27:37.491Z,9.90
2022-10-06T16:30:09.122Z,11.30
2022-10-06T16:32:40.507Z,11.00
2022-10-06T16:35:17.426Z,13.80
2022-10-06T16:37:50.204Z,26.60
2022-10-06T16:40:27.320Z,30.50
2022-10-06T16:43:18.287Z,33.90
2022-10-06T16:46:02.341Z,25.40
2022-10-06T16:48:37.182Z,23.80
2022-10-06T16:51:11.319Z,23.60
2022-10-06T16:53:50.354Z,23.80
2022-10-06T16:56:27.825Z,23.80
2022-10-06T16:59:04.877Z,27.50
2022-10-06T17:01:53.779Z,22.60
2022-10-06T17:04:37.164Z,20.20
2022-10-06T17:07:37.580Z,21.10
2022-10-06T17:10:20.939Z,21.80
2022-10-06T17:13:19.466Z,19.60
2022-10-06T17:16:03.049Z,20.30
2022-10-06T17:18:38.858Z,22.20
2022-10-06T17:21:44.844Z,19.40
2022-10-06T17:24:20.639Z,19.70
2022-10-06T17:26:51.536Z,18.60
2022-10-06T17:29:23.257Z,19.50
2022-10-06T17:31:59.579Z,16.80
2022-10-06T17:34:33.710Z,19.00
2022-10-06T17:37:09.955Z,16.10
2022-10-06T17:39:46.825Z,20.10
2022-10-06T17:42:18.226Z,19.80
2022-10-06T17:44:51.607Z,17.30
2022-10-06T17:47:33.772Z,15.70
2022-10-06T17:50:05.483Z,16.60
2022-10-06T17:52:39.126Z,15.50
2022-10-06T17:55:13.177Z,15.40
2022-10-06T17:57:49.288Z,14.20
2022-10-06T18:00:19.659Z,15.90
2022-10-06T18:02:58.236Z,15.80
2022-10-06T18:05:34.266Z,15.30
2022-10-06T18:08:08.855Z,15.00
2022-10-06T18:11:19.193Z,16.80
2022-10-06T18:13:51.438Z,13.60
2022-10-06T18:16:28.411Z,16.50
2022-10-06T18:19:08.110Z,18.70
2022-10-06T18:21:45.105Z,19.30
2022-10-06T18:24:24.684Z,14.10
2022-10-06T18:27:00.145Z,19.40
2022-10-06T18:29:35.022Z,16.10
2022-10-06T18:36:12.867Z,18.40
2022-10-06T18:38:12.000Z,16.20
2022-10-06T18:40:55.601Z,17.10
2022-10-06T18:43:28.616Z,19.00
2022-10-06T18:46:23.909Z,18.60
2022-10-06T18:48:56.314Z,20.90
2022-10-06T18:51:33.879Z,22.70
2022-10-06T18:54:08.898Z,18.60
2022-10-06T18:57:03.780Z,22.40
2022-10-06T18:59:33.613Z,18.70
2022-10-06T19:02:05.254Z,21.70
2022-10-06T19:04:36.515Z,20.00
2022-10-06T19:07:31.780Z,23.20
2022-10-06T19:10:02.741Z,20.80
2022-10-06T19:12:32.649Z,24.50
2022-10-06T19:15:04.082Z,23.20
2022-10-06T19:17:35.393Z,21.60
2022-10-06T19:20:07.062Z,24.60
2022-10-06T19:22:38.679Z,24.00
2022-10-06T19:25:09.659Z,24.70
2022-10-06T19:27:43.914Z,19.80
2022-10-06T19:30:15.994Z,20.40
2022-10-06T19:32:48.962Z,22.30
2022-10-06T19:35:20.193Z,19.30
2022-10-06T19:37:51.467Z,19.50
2022-10-06T19:40:22.298Z,19.60
2022-10-06T19:42:54.102Z,19.50
2022-10-06T19:45:27.117Z,21.00
2022-10-06T19:47:58.129Z,21.30
2022-10-06T19:50:29.400Z,21.90
2022-10-06T19:53:04.778Z,19.80
2022-10-06T19:59:20.421Z,23.40
2022-10-06T20:02:18.004Z,26.40
2022-10-06T20:04:50.875Z,27.90
2022-10-06T20:07:45.888Z,28.60
2022-10-06T20:10:19.554Z,25.70
2022-10-06T20:17:04.878Z,28.10
2022-10-06T20:20:24.829Z,24.80
2022-10-06T20:23:10.195Z,24.20
2022-10-06T20:25:52.749Z,24.60
2022-10-06T20:29:01.802Z,22.70
2022-10-06T20:39:12.947Z,26.30
2022-10-06T20:42:18.862Z,22.10
2022-10-06T20:44:57.298Z,23.40
2022-10-06T20:48:53.203Z,25.10
2022-10-06T20:51:27.775Z,21.30
2022-10-06T20:54:00.641Z,21.50
2022-10-06T20:56:34.899Z,19.10
2022-10-06T20:59:07.786Z,19.30
2022-10-06T21:01:40.946Z,22.10
2022-10-06T21:04:12.836Z,22.00
2022-10-06T21:06:45.156Z,24.50
2022-10-06T21:09:35.908Z,21.60
2022-10-06T21:12:07.098Z,19.70
2022-10-06T21:14:40.335Z,25.10
2022-10-06T21:17:11.506Z,21.00
2022-10-06T21:19:42.387Z,19.40
2022-10-06T21:22:14.169Z,18.00
2022-10-06T21:24:45.471Z,18.40
2022-10-06T21:27:18.426Z,24.10
2022-10-06T21:29:49.143Z,17.50
2022-10-06T21:32:20.058Z,24.60
2022-10-06T21:34:51.254Z,25.60
2022-10-06T21:37:22.200Z,20.60
2022-10-06T21:39:53.160Z,23.20
2022-10-06T21:42:24.200Z,23.50
2022-10-06T21:44:55.140Z,19.90
2022-10-06T21:47:26.435Z,20.80
2022-10-06T21:49:57.469Z,19.30
2022-10-06T21:52:28.522Z,17.80
2022-10-06T21:54:59.546Z,20.10
2022-10-06T21:57:30.701Z,18.30
2022-10-06T21:59:59.212Z,19.30
2022-10-06T22:05:00.783Z,17.80
2022-10-06T22:07:29.602Z,14.60
2022-10-06T22:10:00.632Z,17.00
2022-10-06T22:12:31.848Z,16.00
2022-10-06T22:15:02.751Z,15.90
2022-10-06T22:17:33.851Z,17.50
2022-10-06T22:20:04.872Z,19.10
2022-10-06T22:22:36.025Z,14.80
2022-10-06T22:25:08.104Z,17.10
2022-10-06T22:27:39.119Z,17.50
2022-10-06T22:30:11.215Z,14.90
2022-10-06T22:32:42.485Z,15.80
2022-10-06T22:35:16.876Z,15.10
2022-10-06T22:37:49.071Z,14.20
2022-10-06T22:40:20.216Z,12.70
2022-10-06T22:42:51.317Z,13.00
2022-10-06T22:45:24.039Z,13.50
2022-10-06T22:56:32.292Z,13.40
2022-10-06T23:03:22.664Z,14.90
2022-10-06T23:06:29.843Z,12.50
2022-10-06T23:13:18.408Z,12.80
2022-10-06T23:24:08.775Z,9.50
2022-10-06T23:34:55.015Z,12.70
